Mount Judea, Arkansas
Current Conditions -  °F | °C
As of 4:53 AM on Friday 19 Dec 2014 (Local Time) from KHRO Reporting Station
Haze Haze  
Wind Chill: 31°   Ceiling: 300
Heat Index: 36°   Visibility: 5mi
Dew Point: 36°   Wind: 6mph
Humidity: 100%   Direction: 140°SE
Pressure: 30.19"   Gusts: NA
Location:  35.92°N, 93.06°W
Report Text: KHRO 191053Z AUTO 14005KT 5SM BR OVC003 02/02 A3019 RMK AO2 SLP230 T00220022
Loading
Personal Weather Stations






























Interactive Weather Map New forecast layout! Learn more

10-Day Weather Forecast

Advertisements
Track Severe Weather on mobile